sensor_id;sensor_type;location;lat;lon;timestamp;temperature;humidity
3308;DHT22;1666;48.898;9.182;2024-02-23T00:00:15;7.10;1.00
3308;DHT22;1666;48.898;9.182;2024-02-23T00:02:45;7.10;1.00
3308;DHT22;1666;48.898;9.182;2024-02-23T00:05:16;7.10;1.00
3308;DHT22;1666;48.898;9.182;2024-02-23T00:07:48;7.10;1.00
3308;DHT22;1666;48.898;9.182;2024-02-23T00:10:19;7.10;1.00
3308;DHT22;1666;48.898;9.182;2024-02-23T00:12:48;7.10;1.00
3308;DHT22;1666;48.898;9.182;2024-02-23T00:15:19;7.10;1.00
3308;DHT22;1666;48.898;9.182;2024-02-23T00:17:51;7.10;1.00
3308;DHT22;1666;48.898;9.182;2024-02-23T00:20:21;7.00;1.00
3308;DHT22;1666;48.898;9.182;2024-02-23T00:22:54;7.00;1.00
3308;DHT22;1666;48.898;9.182;2024-02-23T00:25:24;6.90;1.00
3308;DHT22;1666;48.898;9.182;2024-02-23T00:27:54;7.00;1.00
3308;DHT22;1666;48.898;9.182;2024-02-23T00:30:24;7.00;1.00
3308;DHT22;1666;48.898;9.182;2024-02-23T00:32:54;7.00;1.00
3308;DHT22;1666;48.898;9.182;2024-02-23T00:35:24;7.00;1.00
3308;DHT22;1666;48.898;9.182;2024-02-23T00:37:57;7.00;1.00
3308;DHT22;1666;48.898;9.182;2024-02-23T00:40:28;7.10;1.00
3308;DHT22;1666;48.898;9.182;2024-02-23T00:42:58;7.00;1.00
3308;DHT22;1666;48.898;9.182;2024-02-23T00:45:28;7.00;1.00
3308;DHT22;1666;48.898;9.182;2024-02-23T00:47:58;7.00;1.00
3308;DHT22;1666;48.898;9.182;2024-02-23T00:50:29;7.00;1.00
3308;DHT22;1666;48.898;9.182;2024-02-23T00:53:02;7.00;1.00
3308;DHT22;1666;48.898;9.182;2024-02-23T00:55:32;7.00;1.00
3308;DHT22;1666;48.898;9.182;2024-02-23T00:58:02;7.00;1.00
3308;DHT22;1666;48.898;9.182;2024-02-23T01:00:32;7.00;1.00
3308;DHT22;1666;48.898;9.182;2024-02-23T01:03:03;6.90;1.00
3308;DHT22;1666;48.898;9.182;2024-02-23T01:05:33;6.90;1.00
3308;DHT22;1666;48.898;9.182;2024-02-23T01:08:07;6.90;1.00
3308;DHT22;1666;48.898;9.182;2024-02-23T01:10:37;6.90;1.00
3308;DHT22;1666;48.898;9.182;2024-02-23T01:13:07;6.90;1.00
3308;DHT22;1666;48.898;9.182;2024-02-23T01:15:37;6.80;1.00
3308;DHT22;1666;48.898;9.182;2024-02-23T01:18:07;6.90;1.00
3308;DHT22;1666;48.898;9.182;2024-02-23T01:20:37;6.90;1.00
3308;DHT22;1666;48.898;9.182;2024-02-23T01:23:10;6.90;1.00
3308;DHT22;1666;48.898;9.182;2024-02-23T01:25:40;6.90;1.00
3308;DHT22;1666;48.898;9.182;2024-02-23T01:28:11;6.80;1.00
3308;DHT22;1666;48.898;9.182;2024-02-23T01:30:41;6.90;1.00
3308;DHT22;1666;48.898;9.182;2024-02-23T01:33:11;6.90;1.00
3308;DHT22;1666;48.898;9.182;2024-02-23T01:35:41;6.90;1.00
3308;DHT22;1666;48.898;9.182;2024-02-23T01:38:14;6.80;1.00
3308;DHT22;1666;48.898;9.182;2024-02-23T01:40:48;6.90;1.00
3308;DHT22;1666;48.898;9.182;2024-02-23T01:43:18;6.90;1.00
3308;DHT22;1666;48.898;9.182;2024-02-23T01:45:48;6.80;1.00
3308;DHT22;1666;48.898;9.182;2024-02-23T01:48:18;6.80;1.00
3308;DHT22;1666;48.898;9.182;2024-02-23T01:50:49;6.80;1.00
3308;DHT22;1666;48.898;9.182;2024-02-23T01:53:22;6.80;1.00
3308;DHT22;1666;48.898;9.182;2024-02-23T01:55:53;6.80;1.00
3308;DHT22;1666;48.898;9.182;2024-02-23T01:58:24;6.90;1.00
3308;DHT22;1666;48.898;9.182;2024-02-23T02:00:54;6.90;1.00
3308;DHT22;1666;48.898;9.182;2024-02-23T02:03:25;6.90;1.00
3308;DHT22;1666;48.898;9.182;2024-02-23T02:05:57;6.90;1.00
3308;DHT22;1666;48.898;9.182;2024-02-23T02:08:30;6.80;1.00
3308;DHT22;1666;48.898;9.182;2024-02-23T02:11:01;6.80;1.00
3308;DHT22;1666;48.898;9.182;2024-02-23T02:13:31;6.80;1.00
3308;DHT22;1666;48.898;9.182;2024-02-23T02:16:02;6.80;1.00
3308;DHT22;1666;48.898;9.182;2024-02-23T02:18:32;6.80;1.00
3308;DHT22;1666;48.898;9.182;2024-02-23T02:21:02;6.60;1.00
3308;DHT22;1666;48.898;9.182;2024-02-23T02:23:35;6.70;1.00
3308;DHT22;1666;48.898;9.182;2024-02-23T02:26:05;6.50;1.00
3308;DHT22;1666;48.898;9.182;2024-02-23T02:28:35;6.50;1.00
3308;DHT22;1666;48.898;9.182;2024-02-23T02:31:06;6.50;1.00
3308;DHT22;1666;48.898;9.182;2024-02-23T02:33:36;6.50;1.00
3308;DHT22;1666;48.898;9.182;2024-02-23T02:36:06;6.40;1.00
3308;DHT22;1666;48.898;9.182;2024-02-23T02:38:39;6.40;1.00
3308;DHT22;1666;48.898;9.182;2024-02-23T02:41:09;6.30;1.00
3308;DHT22;1666;48.898;9.182;2024-02-23T02:43:39;6.30;1.00
3308;DHT22;1666;48.898;9.182;2024-02-23T02:46:09;6.20;1.00
3308;DHT22;1666;48.898;9.182;2024-02-23T02:48:39;6.20;1.00
3308;DHT22;1666;48.898;9.182;2024-02-23T02:51:10;6.20;1.00
3308;DHT22;1666;48.898;9.182;2024-02-23T02:53:42;6.20;1.00
3308;DHT22;1666;48.898;9.182;2024-02-23T02:56:12;6.20;1.00
3308;DHT22;1666;48.898;9.182;2024-02-23T02:58:43;6.10;1.00
3308;DHT22;1666;48.898;9.182;2024-02-23T03:01:13;6.20;1.00
3308;DHT22;1666;48.898;9.182;2024-02-23T03:03:43;6.10;1.00
3308;DHT22;1666;48.898;9.182;2024-02-23T03:06:13;6.10;1.00
3308;DHT22;1666;48.898;9.182;2024-02-23T03:08:46;6.10;1.00
3308;DHT22;1666;48.898;9.182;2024-02-23T03:11:16;6.20;1.00
3308;DHT22;1666;48.898;9.182;2024-02-23T03:13:46;6.10;1.00
3308;DHT22;1666;48.898;9.182;2024-02-23T03:16:16;6.10;1.00
3308;DHT22;1666;48.898;9.182;2024-02-23T03:18:46;6.10;1.00
3308;DHT22;1666;48.898;9.182;2024-02-23T03:21:21;6.10;1.00
3308;DHT22;1666;48.898;9.182;2024-02-23T03:23:53;6.10;1.00
3308;DHT22;1666;48.898;9.182;2024-02-23T03:26:23;6.10;1.00
3308;DHT22;1666;48.898;9.182;2024-02-23T03:28:53;6.00;1.00
3308;DHT22;1666;48.898;9.182;2024-02-23T03:31:23;6.10;1.00
3308;DHT22;1666;48.898;9.182;2024-02-23T03:33:53;6.10;1.00
3308;DHT22;1666;48.898;9.182;2024-02-23T03:36:24;6.10;1.00
3308;DHT22;1666;48.898;9.182;2024-02-23T03:38:56;6.10;1.00
3308;DHT22;1666;48.898;9.182;2024-02-23T03:41:26;6.10;1.00
3308;DHT22;1666;48.898;9.182;2024-02-23T03:43:56;6.10;1.00
3308;DHT22;1666;48.898;9.182;2024-02-23T03:46:24;6.10;1.00
3308;DHT22;1666;48.898;9.182;2024-02-23T03:48:54;6.20;1.00
3308;DHT22;1666;48.898;9.182;2024-02-23T03:51:24;6.20;1.00
3308;DHT22;1666;48.898;9.182;2024-02-23T03:53:57;6.20;1.00
3308;DHT22;1666;48.898;9.182;2024-02-23T03:56:27;6.20;1.00
3308;DHT22;1666;48.898;9.182;2024-02-23T03:58:57;6.20;1.00
3308;DHT22;1666;48.898;9.182;2024-02-23T04:01:27;6.20;1.00
3308;DHT22;1666;48.898;9.182;2024-02-23T04:03:57;6.20;1.00
3308;DHT22;1666;48.898;9.182;2024-02-23T04:06:27;6.20;1.00
3308;DHT22;1666;48.898;9.182;2024-02-23T04:09:00;6.20;1.00
3308;DHT22;1666;48.898;9.182;2024-02-23T04:11:32;6.20;1.00
3308;DHT22;1666;48.898;9.182;2024-02-23T04:14:02;6.20;1.00
3308;DHT22;1666;48.898;9.182;2024-02-23T04:16:32;6.10;1.00
3308;DHT22;1666;48.898;9.182;2024-02-23T04:19:02;6.00;1.00
3308;DHT22;1666;48.898;9.182;2024-02-23T04:21:34;6.10;1.00
3308;DHT22;1666;48.898;9.182;2024-02-23T04:24:06;6.10;1.00
3308;DHT22;1666;48.898;9.182;2024-02-23T04:26:36;6.00;1.00
3308;DHT22;1666;48.898;9.182;2024-02-23T04:29:06;6.00;1.00
3308;DHT22;1666;48.898;9.182;2024-02-23T04:31:37;6.00;1.00
3308;DHT22;1666;48.898;9.182;2024-02-23T04:34:07;5.90;1.00
3308;DHT22;1666;48.898;9.182;2024-02-23T04:36:37;5.90;1.00
3308;DHT22;1666;48.898;9.182;2024-02-23T04:39:10;5.90;1.00
3308;DHT22;1666;48.898;9.182;2024-02-23T04:41:40;5.90;1.00
3308;DHT22;1666;48.898;9.182;2024-02-23T04:44:10;5.90;1.00
3308;DHT22;1666;48.898;9.182;2024-02-23T04:46:40;5.90;1.00
3308;DHT22;1666;48.898;9.182;2024-02-23T04:49:10;5.90;1.00
3308;DHT22;1666;48.898;9.182;2024-02-23T04:51:41;5.80;1.00
3308;DHT22;1666;48.898;9.182;2024-02-23T04:54:14;5.80;1.00
3308;DHT22;1666;48.898;9.182;2024-02-23T04:56:44;5.80;1.00
3308;DHT22;1666;48.898;9.182;2024-02-23T04:59:14;5.80;1.00
3308;DHT22;1666;48.898;9.182;2024-02-23T05:01:44;5.90;1.00
3308;DHT22;1666;48.898;9.182;2024-02-23T05:04:14;5.70;1.00
3308;DHT22;1666;48.898;9.182;2024-02-23T05:06:44;5.80;1.00
3308;DHT22;1666;48.898;9.182;2024-02-23T05:09:17;5.70;1.00
3308;DHT22;1666;48.898;9.182;2024-02-23T05:11:47;5.70;1.00
3308;DHT22;1666;48.898;9.182;2024-02-23T05:14:18;5.60;1.00
3308;DHT22;1666;48.898;9.182;2024-02-23T05:16:48;5.60;1.00
3308;DHT22;1666;48.898;9.182;2024-02-23T05:19:18;5.50;1.00
3308;DHT22;1666;48.898;9.182;2024-02-23T05:21:48;5.50;1.00
3308;DHT22;1666;48.898;9.182;2024-02-23T05:24:20;5.50;1.00
3308;DHT22;1666;48.898;9.182;2024-02-23T05:26:50;5.50;1.00
3308;DHT22;1666;48.898;9.182;2024-02-23T05:29:20;5.50;1.00
3308;DHT22;1666;48.898;9.182;2024-02-23T05:31:52;5.40;1.00
3308;DHT22;1666;48.898;9.182;2024-02-23T05:34:22;5.50;1.00
3308;DHT22;1666;48.898;9.182;2024-02-23T05:36:52;5.50;1.00
3308;DHT22;1666;48.898;9.182;2024-02-23T05:39:25;5.40;1.00
3308;DHT22;1666;48.898;9.182;2024-02-23T05:41:56;5.40;1.00
3308;DHT22;1666;48.898;9.182;2024-02-23T05:44:27;5.40;1.00
3308;DHT22;1666;48.898;9.182;2024-02-23T05:46:57;5.40;1.00
3308;DHT22;1666;48.898;9.182;2024-02-23T05:49:27;5.40;1.00
3308;DHT22;1666;48.898;9.182;2024-02-23T05:51:57;5.40;1.00
3308;DHT22;1666;48.898;9.182;2024-02-23T05:54:30;5.40;1.00
3308;DHT22;1666;48.898;9.182;2024-02-23T05:57:00;5.40;1.00
3308;DHT22;1666;48.898;9.182;2024-02-23T05:59:30;5.50;1.00
3308;DHT22;1666;48.898;9.182;2024-02-23T06:02:00;5.50;1.00
3308;DHT22;1666;48.898;9.182;2024-02-23T06:04:30;5.50;1.00
3308;DHT22;1666;48.898;9.182;2024-02-23T06:07:01;5.50;1.00
3308;DHT22;1666;48.898;9.182;2024-02-23T06:09:34;5.40;1.00
3308;DHT22;1666;48.898;9.182;2024-02-23T06:12:05;5.30;1.00
3308;DHT22;1666;48.898;9.182;2024-02-23T06:14:36;5.40;1.00
3308;DHT22;1666;48.898;9.182;2024-02-23T06:17:06;5.30;1.00
3308;DHT22;1666;48.898;9.182;2024-02-23T06:19:36;5.30;1.00
3308;DHT22;1666;48.898;9.182;2024-02-23T06:22:07;5.30;1.00
3308;DHT22;1666;48.898;9.182;2024-02-23T06:24:39;5.40;1.00
3308;DHT22;1666;48.898;9.182;2024-02-23T06:27:09;5.40;1.00
3308;DHT22;1666;48.898;9.182;2024-02-23T06:29:39;5.30;1.00
3308;DHT22;1666;48.898;9.182;2024-02-23T06:32:09;5.40;1.00
3308;DHT22;1666;48.898;9.182;2024-02-23T06:34:39;5.30;1.00
3308;DHT22;1666;48.898;9.182;2024-02-23T06:37:09;5.30;1.00
3308;DHT22;1666;48.898;9.182;2024-02-23T06:39:43;5.20;1.00
3308;DHT22;1666;48.898;9.182;2024-02-23T06:42:18;5.20;1.00
3308;DHT22;1666;48.898;9.182;2024-02-23T06:44:48;5.20;1.00
3308;DHT22;1666;48.898;9.182;2024-02-23T06:47:18;5.20;1.00
3308;DHT22;1666;48.898;9.182;2024-02-23T06:49:49;5.20;1.00
3308;DHT22;1666;48.898;9.182;2024-02-23T06:52:19;5.20;1.00
3308;DHT22;1666;48.898;9.182;2024-02-23T06:54:53;5.20;1.00
3308;DHT22;1666;48.898;9.182;2024-02-23T06:57:23;5.30;1.00
3308;DHT22;1666;48.898;9.182;2024-02-23T06:59:54;5.40;1.00
3308;DHT22;1666;48.898;9.182;2024-02-23T07:02:24;5.30;1.00
3308;DHT22;1666;48.898;9.182;2024-02-23T07:04:54;5.40;1.00
3308;DHT22;1666;48.898;9.182;2024-02-23T07:07:25;5.40;1.00
3308;DHT22;1666;48.898;9.182;2024-02-23T07:09:58;5.40;1.00
3308;DHT22;1666;48.898;9.182;2024-02-23T07:12:28;5.30;1.00
3308;DHT22;1666;48.898;9.182;2024-02-23T07:14:58;5.30;1.00
3308;DHT22;1666;48.898;9.182;2024-02-23T07:17:29;5.40;1.00
3308;DHT22;1666;48.898;9.182;2024-02-23T07:20:02;5.40;1.00
3308;DHT22;1666;48.898;9.182;2024-02-23T07:22:33;5.50;1.00
3308;DHT22;1666;48.898;9.182;2024-02-23T07:25:07;5.50;1.00
3308;DHT22;1666;48.898;9.182;2024-02-23T07:27:37;5.50;1.00
3308;DHT22;1666;48.898;9.182;2024-02-23T07:30:08;5.60;1.00
3308;DHT22;1666;48.898;9.182;2024-02-23T07:32:39;5.60;1.00
3308;DHT22;1666;48.898;9.182;2024-02-23T07:35:10;5.60;1.00
3308;DHT22;1666;48.898;9.182;2024-02-23T07:37:40;5.70;1.00
3308;DHT22;1666;48.898;9.182;2024-02-23T07:40:13;5.70;1.00
3308;DHT22;1666;48.898;9.182;2024-02-23T07:42:48;5.80;1.00
3308;DHT22;1666;48.898;9.182;2024-02-23T07:45:18;5.90;1.00
3308;DHT22;1666;48.898;9.182;2024-02-23T07:47:48;5.90;1.00
3308;DHT22;1666;48.898;9.182;2024-02-23T07:50:18;5.90;1.00
3308;DHT22;1666;48.898;9.182;2024-02-23T07:52:50;5.90;1.00
3308;DHT22;1666;48.898;9.182;2024-02-23T07:55:26;6.00;1.00
3308;DHT22;1666;48.898;9.182;2024-02-23T07:57:57;6.10;1.00
3308;DHT22;1666;48.898;9.182;2024-02-23T08:00:29;6.20;1.00
3308;DHT22;1666;48.898;9.182;2024-02-23T08:02:59;6.10;1.00
3308;DHT22;1666;48.898;9.182;2024-02-23T08:05:29;6.10;1.00
3308;DHT22;1666;48.898;9.182;2024-02-23T08:08:00;6.10;1.00
3308;DHT22;1666;48.898;9.182;2024-02-23T08:10:32;5.90;1.00
3308;DHT22;1666;48.898;9.182;2024-02-23T08:13:03;6.00;1.00
3308;DHT22;1666;48.898;9.182;2024-02-23T08:15:34;6.10;1.00
3308;DHT22;1666;48.898;9.182;2024-02-23T08:18:05;6.00;1.00
3308;DHT22;1666;48.898;9.182;2024-02-23T08:20:35;6.00;1.00
3308;DHT22;1666;48.898;9.182;2024-02-23T08:23:06;6.00;1.00
3308;DHT22;1666;48.898;9.182;2024-02-23T08:25:39;6.00;1.00
3308;DHT22;1666;48.898;9.182;2024-02-23T08:28:09;5.90;1.00
3308;DHT22;1666;48.898;9.182;2024-02-23T08:30:39;5.90;1.00
3308;DHT22;1666;48.898;9.182;2024-02-23T08:33:09;6.00;1.00
3308;DHT22;1666;48.898;9.182;2024-02-23T08:35:39;6.00;1.00
3308;DHT22;1666;48.898;9.182;2024-02-23T08:38:11;6.10;1.00
3308;DHT22;1666;48.898;9.182;2024-02-23T08:40:43;6.10;1.00
3308;DHT22;1666;48.898;9.182;2024-02-23T08:43:13;6.10;1.00
3308;DHT22;1666;48.898;9.182;2024-02-23T08:45:43;6.00;1.00
3308;DHT22;1666;48.898;9.182;2024-02-23T08:48:13;6.00;1.00
3308;DHT22;1666;48.898;9.182;2024-02-23T08:50:46;6.00;1.00
3308;DHT22;1666;48.898;9.182;2024-02-23T08:53:19;6.10;1.00
3308;DHT22;1666;48.898;9.182;2024-02-23T08:55:52;6.00;1.00
3308;DHT22;1666;48.898;9.182;2024-02-23T08:58:23;6.10;1.00
3308;DHT22;1666;48.898;9.182;2024-02-23T09:00:53;6.30;1.00
3308;DHT22;1666;48.898;9.182;2024-02-23T09:03:23;6.40;1.00
3308;DHT22;1666;48.898;9.182;2024-02-23T09:05:53;6.30;1.00
3308;DHT22;1666;48.898;9.182;2024-02-23T09:08:23;6.40;1.00
3308;DHT22;1666;48.898;9.182;2024-02-23T09:10:56;6.30;1.00
3308;DHT22;1666;48.898;9.182;2024-02-23T09:13:27;6.30;1.00
3308;DHT22;1666;48.898;9.182;2024-02-23T09:15:57;6.40;1.00
3308;DHT22;1666;48.898;9.182;2024-02-23T09:18:28;6.50;1.00
3308;DHT22;1666;48.898;9.182;2024-02-23T09:20:59;6.40;1.00
3308;DHT22;1666;48.898;9.182;2024-02-23T09:23:29;6.50;1.00
3308;DHT22;1666;48.898;9.182;2024-02-23T09:26:08;6.60;1.00
3308;DHT22;1666;48.898;9.182;2024-02-23T09:28:39;6.50;1.00
3308;DHT22;1666;48.898;9.182;2024-02-23T09:31:12;6.50;1.00
3308;DHT22;1666;48.898;9.182;2024-02-23T09:33:42;6.50;1.00
3308;DHT22;1666;48.898;9.182;2024-02-23T09:36:13;6.50;1.00
3308;DHT22;1666;48.898;9.182;2024-02-23T09:38:44;6.60;1.00
3308;DHT22;1666;48.898;9.182;2024-02-23T09:41:19;6.70;1.00
3308;DHT22;1666;48.898;9.182;2024-02-23T09:43:50;6.80;1.00
3308;DHT22;1666;48.898;9.182;2024-02-23T09:46:21;6.70;1.00
3308;DHT22;1666;48.898;9.182;2024-02-23T09:48:51;6.90;1.00
3308;DHT22;1666;48.898;9.182;2024-02-23T09:51:22;6.90;1.00
3308;DHT22;1666;48.898;9.182;2024-02-23T09:53:53;7.10;1.00
3308;DHT22;1666;48.898;9.182;2024-02-23T09:56:27;7.30;1.00
3308;DHT22;1666;48.898;9.182;2024-02-23T09:59:01;7.40;1.00
3308;DHT22;1666;48.898;9.182;2024-02-23T10:01:32;7.50;1.00
3308;DHT22;1666;48.898;9.182;2024-02-23T10:04:04;7.50;1.00
3308;DHT22;1666;48.898;9.182;2024-02-23T10:06:35;7.50;1.00
3308;DHT22;1666;48.898;9.182;2024-02-23T10:09:05;7.40;1.00
3308;DHT22;1666;48.898;9.182;2024-02-23T10:11:38;7.60;1.00
3308;DHT22;1666;48.898;9.182;2024-02-23T10:14:08;7.60;1.00
3308;DHT22;1666;48.898;9.182;2024-02-23T10:16:39;7.70;1.00
3308;DHT22;1666;48.898;9.182;2024-02-23T10:19:09;7.90;1.00
3308;DHT22;1666;48.898;9.182;2024-02-23T10:21:39;7.80;1.00
3308;DHT22;1666;48.898;9.182;2024-02-23T10:24:09;7.90;1.00
3308;DHT22;1666;48.898;9.182;2024-02-23T10:26:42;8.00;1.00
3308;DHT22;1666;48.898;9.182;2024-02-23T10:29:12;7.90;1.00
3308;DHT22;1666;48.898;9.182;2024-02-23T10:31:46;7.90;1.00
3308;DHT22;1666;48.898;9.182;2024-02-23T10:34:19;7.90;1.00
3308;DHT22;1666;48.898;9.182;2024-02-23T10:36:50;7.90;1.00
3308;DHT22;1666;48.898;9.182;2024-02-23T10:39:23;8.10;1.00
3308;DHT22;1666;48.898;9.182;2024-02-23T10:42:00;8.20;1.00
3308;DHT22;1666;48.898;9.182;2024-02-23T10:44:31;7.90;1.00
3308;DHT22;1666;48.898;9.182;2024-02-23T10:47:01;8.10;1.00
3308;DHT22;1666;48.898;9.182;2024-02-23T10:49:33;8.30;1.00
3308;DHT22;1666;48.898;9.182;2024-02-23T10:52:05;8.50;1.00
3308;DHT22;1666;48.898;9.182;2024-02-23T10:54:36;8.60;1.00
3308;DHT22;1666;48.898;9.182;2024-02-23T10:57:09;8.60;1.00
3308;DHT22;1666;48.898;9.182;2024-02-23T10:59:45;8.90;1.00
3308;DHT22;1666;48.898;9.182;2024-02-23T11:02:18;9.10;1.00
3308;DHT22;1666;48.898;9.182;2024-02-23T11:04:49;8.90;1.00
3308;DHT22;1666;48.898;9.182;2024-02-23T11:07:20;9.00;1.00
3308;DHT22;1666;48.898;9.182;2024-02-23T11:09:52;8.70;1.00
3308;DHT22;1666;48.898;9.182;2024-02-23T11:12:26;8.70;1.00
3308;DHT22;1666;48.898;9.182;2024-02-23T11:14:59;9.10;1.00
3308;DHT22;1666;48.898;9.182;2024-02-23T11:17:31;9.20;1.00
3308;DHT22;1666;48.898;9.182;2024-02-23T11:20:03;9.00;1.00
3308;DHT22;1666;48.898;9.182;2024-02-23T11:22:34;9.20;1.00
3308;DHT22;1666;48.898;9.182;2024-02-23T11:25:07;9.40;1.00
3308;DHT22;1666;48.898;9.182;2024-02-23T11:27:40;8.90;1.00
3308;DHT22;1666;48.898;9.182;2024-02-23T11:30:11;9.00;1.00
3308;DHT22;1666;48.898;9.182;2024-02-23T11:32:43;9.10;1.00
3308;DHT22;1666;48.898;9.182;2024-02-23T11:35:16;8.70;1.00
3308;DHT22;1666;48.898;9.182;2024-02-23T11:37:48;8.80;1.00
3308;DHT22;1666;48.898;9.182;2024-02-23T11:40:19;9.10;1.00
3308;DHT22;1666;48.898;9.182;2024-02-23T11:42:54;9.10;1.00
3308;DHT22;1666;48.898;9.182;2024-02-23T11:45:24;8.80;1.00
3308;DHT22;1666;48.898;9.182;2024-02-23T11:47:55;8.90;1.00
3308;DHT22;1666;48.898;9.182;2024-02-23T11:50:27;8.80;1.00
3308;DHT22;1666;48.898;9.182;2024-02-23T11:52:57;9.00;1.00
3308;DHT22;1666;48.898;9.182;2024-02-23T11:55:28;9.00;1.00
3308;DHT22;1666;48.898;9.182;2024-02-23T11:58:01;9.10;1.00
3308;DHT22;1666;48.898;9.182;2024-02-23T12:00:43;9.00;1.00
3308;DHT22;1666;48.898;9.182;2024-02-23T12:03:14;9.00;1.00
3308;DHT22;1666;48.898;9.182;2024-02-23T12:05:44;9.00;1.00
3308;DHT22;1666;48.898;9.182;2024-02-23T12:08:14;9.10;1.00
3308;DHT22;1666;48.898;9.182;2024-02-23T12:10:45;9.00;1.00
3308;DHT22;1666;48.898;9.182;2024-02-23T12:13:17;9.10;1.00
3308;DHT22;1666;48.898;9.182;2024-02-23T12:15:48;9.00;1.00
3308;DHT22;1666;48.898;9.182;2024-02-23T12:18:18;8.90;1.00
3308;DHT22;1666;48.898;9.182;2024-02-23T12:20:50;9.00;1.00
3308;DHT22;1666;48.898;9.182;2024-02-23T12:23:21;9.00;1.00
3308;DHT22;1666;48.898;9.182;2024-02-23T12:25:54;8.90;1.00
3308;DHT22;1666;48.898;9.182;2024-02-23T12:28:29;9.00;1.00
3308;DHT22;1666;48.898;9.182;2024-02-23T12:30:59;9.10;1.00
3308;DHT22;1666;48.898;9.182;2024-02-23T12:33:31;9.00;1.00
3308;DHT22;1666;48.898;9.182;2024-02-23T12:36:03;9.10;1.00
3308;DHT22;1666;48.898;9.182;2024-02-23T12:38:34;8.80;1.00
3308;DHT22;1666;48.898;9.182;2024-02-23T12:41:05;8.80;1.00
3308;DHT22;1666;48.898;9.182;2024-02-23T12:43:37;8.90;1.00
3308;DHT22;1666;48.898;9.182;2024-02-23T12:46:10;8.90;1.00
3308;DHT22;1666;48.898;9.182;2024-02-23T12:48:41;9.00;1.00
3308;DHT22;1666;48.898;9.182;2024-02-23T12:51:12;9.00;1.00
3308;DHT22;1666;48.898;9.182;2024-02-23T12:53:42;9.00;1.00
3308;DHT22;1666;48.898;9.182;2024-02-23T12:56:13;9.00;1.00
3308;DHT22;1666;48.898;9.182;2024-02-23T12:58:48;9.20;1.00
3308;DHT22;1666;48.898;9.182;2024-02-23T13:01:18;9.10;1.00
3308;DHT22;1666;48.898;9.182;2024-02-23T13:03:48;9.00;1.00
3308;DHT22;1666;48.898;9.182;2024-02-23T13:06:19;8.90;1.00
3308;DHT22;1666;48.898;9.182;2024-02-23T13:08:49;8.80;1.00
3308;DHT22;1666;48.898;9.182;2024-02-23T13:11:19;9.10;1.00
3308;DHT22;1666;48.898;9.182;2024-02-23T13:13:52;9.00;1.00
3308;DHT22;1666;48.898;9.182;2024-02-23T13:16:22;9.00;1.00
3308;DHT22;1666;48.898;9.182;2024-02-23T13:18:52;9.00;1.00
3308;DHT22;1666;48.898;9.182;2024-02-23T13:21:22;9.00;1.00
3308;DHT22;1666;48.898;9.182;2024-02-23T13:23:52;9.20;1.00
3308;DHT22;1666;48.898;9.182;2024-02-23T13:26:23;9.30;1.00
3308;DHT22;1666;48.898;9.182;2024-02-23T13:28:55;9.70;1.00
3308;DHT22;1666;48.898;9.182;2024-02-23T13:31:25;9.70;1.00
3308;DHT22;1666;48.898;9.182;2024-02-23T13:33:55;9.80;1.00
3308;DHT22;1666;48.898;9.182;2024-02-23T13:36:25;9.60;1.00
3308;DHT22;1666;48.898;9.182;2024-02-23T13:38:56;9.60;1.00
3308;DHT22;1666;48.898;9.182;2024-02-23T13:41:27;9.60;1.00
3308;DHT22;1666;48.898;9.182;2024-02-23T13:44:00;9.50;1.00
3308;DHT22;1666;48.898;9.182;2024-02-23T13:46:30;9.70;1.00
3308;DHT22;1666;48.898;9.182;2024-02-23T13:49:04;9.70;1.00
3308;DHT22;1666;48.898;9.182;2024-02-23T13:51:36;9.40;1.00
3308;DHT22;1666;48.898;9.182;2024-02-23T13:54:06;9.30;1.00
3308;DHT22;1666;48.898;9.182;2024-02-23T13:56:36;9.40;1.00
3308;DHT22;1666;48.898;9.182;2024-02-23T13:59:09;9.40;1.00
3308;DHT22;1666;48.898;9.182;2024-02-23T14:01:39;9.70;1.00
3308;DHT22;1666;48.898;9.182;2024-02-23T14:04:09;9.30;1.00
3308;DHT22;1666;48.898;9.182;2024-02-23T14:06:39;9.30;1.00
3308;DHT22;1666;48.898;9.182;2024-02-23T14:09:09;9.40;1.00
3308;DHT22;1666;48.898;9.182;2024-02-23T14:11:40;9.30;1.00
3308;DHT22;1666;48.898;9.182;2024-02-23T14:14:13;9.30;1.00
3308;DHT22;1666;48.898;9.182;2024-02-23T14:16:43;9.40;1.00
3308;DHT22;1666;48.898;9.182;2024-02-23T14:19:13;9.30;1.00
3308;DHT22;1666;48.898;9.182;2024-02-23T14:21:43;9.30;1.00
3308;DHT22;1666;48.898;9.182;2024-02-23T14:24:15;9.30;1.00
3308;DHT22;1666;48.898;9.182;2024-02-23T14:26:45;9.40;1.00
3308;DHT22;1666;48.898;9.182;2024-02-23T14:29:18;9.30;1.00
3308;DHT22;1666;48.898;9.182;2024-02-23T14:31:48;9.30;1.00
3308;DHT22;1666;48.898;9.182;2024-02-23T14:34:18;9.20;1.00
3308;DHT22;1666;48.898;9.182;2024-02-23T14:36:51;9.20;1.00
3308;DHT22;1666;48.898;9.182;2024-02-23T14:39:21;9.20;1.00
3308;DHT22;1666;48.898;9.182;2024-02-23T14:41:50;9.30;1.00
3308;DHT22;1666;48.898;9.182;2024-02-23T14:44:23;9.40;1.00
3308;DHT22;1666;48.898;9.182;2024-02-23T14:46:53;9.30;1.00
3308;DHT22;1666;48.898;9.182;2024-02-23T14:49:23;9.20;1.00
3308;DHT22;1666;48.898;9.182;2024-02-23T14:51:53;9.40;1.00
3308;DHT22;1666;48.898;9.182;2024-02-23T14:54:25;9.20;1.00
3308;DHT22;1666;48.898;9.182;2024-02-23T14:56:57;9.40;1.00
3308;DHT22;1666;48.898;9.182;2024-02-23T14:59:30;9.40;1.00
3308;DHT22;1666;48.898;9.182;2024-02-23T15:02:03;9.40;1.00
3308;DHT22;1666;48.898;9.182;2024-02-23T15:04:33;9.40;1.00
3308;DHT22;1666;48.898;9.182;2024-02-23T15:07:04;9.40;1.00
3308;DHT22;1666;48.898;9.182;2024-02-23T15:09:34;9.30;1.00
3308;DHT22;1666;48.898;9.182;2024-02-23T15:12:07;9.30;1.00
3308;DHT22;1666;48.898;9.182;2024-02-23T15:14:40;9.20;1.00
3308;DHT22;1666;48.898;9.182;2024-02-23T15:17:10;9.10;1.00
3308;DHT22;1666;48.898;9.182;2024-02-23T15:19:40;9.00;1.00
3308;DHT22;1666;48.898;9.182;2024-02-23T15:22:10;9.00;1.00
3308;DHT22;1666;48.898;9.182;2024-02-23T15:24:42;9.00;1.00
3308;DHT22;1666;48.898;9.182;2024-02-23T15:27:12;9.00;1.00
3308;DHT22;1666;48.898;9.182;2024-02-23T15:29:45;9.00;1.00
3308;DHT22;1666;48.898;9.182;2024-02-23T15:32:16;9.00;1.00
3308;DHT22;1666;48.898;9.182;2024-02-23T15:34:46;9.00;1.00
3308;DHT22;1666;48.898;9.182;2024-02-23T15:37:17;8.90;1.00
3308;DHT22;1666;48.898;9.182;2024-02-23T15:39:47;8.90;1.00
3308;DHT22;1666;48.898;9.182;2024-02-23T15:42:17;9.00;1.00
3308;DHT22;1666;48.898;9.182;2024-02-23T15:44:50;8.90;1.00
3308;DHT22;1666;48.898;9.182;2024-02-23T15:47:21;8.90;1.00
3308;DHT22;1666;48.898;9.182;2024-02-23T15:49:51;8.70;1.00
3308;DHT22;1666;48.898;9.182;2024-02-23T15:52:41;8.90;1.00
3308;DHT22;1666;48.898;9.182;2024-02-23T15:55:12;8.90;1.00
3308;DHT22;1666;48.898;9.182;2024-02-23T15:57:42;8.90;1.00
3308;DHT22;1666;48.898;9.182;2024-02-23T16:00:15;9.10;1.00
3308;DHT22;1666;48.898;9.182;2024-02-23T16:02:46;9.10;1.00
3308;DHT22;1666;48.898;9.182;2024-02-23T16:05:16;9.00;1.00
3308;DHT22;1666;48.898;9.182;2024-02-23T16:07:46;9.00;1.00
3308;DHT22;1666;48.898;9.182;2024-02-23T16:10:17;9.00;1.00
3308;DHT22;1666;48.898;9.182;2024-02-23T16:12:49;8.40;1.00
3308;DHT22;1666;48.898;9.182;2024-02-23T16:15:22;8.30;1.00
3308;DHT22;1666;48.898;9.182;2024-02-23T16:17:52;8.30;1.00
3308;DHT22;1666;48.898;9.182;2024-02-23T16:20:23;8.30;1.00
3308;DHT22;1666;48.898;9.182;2024-02-23T16:22:54;8.10;1.00
3308;DHT22;1666;48.898;9.182;2024-02-23T16:25:24;8.10;1.00
3308;DHT22;1666;48.898;9.182;2024-02-23T16:27:54;8.00;1.00
3308;DHT22;1666;48.898;9.182;2024-02-23T16:30:26;7.90;1.00
3308;DHT22;1666;48.898;9.182;2024-02-23T16:32:57;7.80;1.00
3308;DHT22;1666;48.898;9.182;2024-02-23T16:35:27;7.80;1.00
3308;DHT22;1666;48.898;9.182;2024-02-23T16:37:57;7.70;1.00
3308;DHT22;1666;48.898;9.182;2024-02-23T16:40:28;7.70;1.00
3308;DHT22;1666;48.898;9.182;2024-02-23T16:42:58;7.50;1.00
3308;DHT22;1666;48.898;9.182;2024-02-23T16:45:31;7.50;1.00
3308;DHT22;1666;48.898;9.182;2024-02-23T16:48:01;7.50;1.00
3308;DHT22;1666;48.898;9.182;2024-02-23T16:50:36;7.40;1.00
3308;DHT22;1666;48.898;9.182;2024-02-23T16:53:10;7.30;1.00
3308;DHT22;1666;48.898;9.182;2024-02-23T16:55:42;7.20;1.00
3308;DHT22;1666;48.898;9.182;2024-02-23T16:58:13;7.10;1.00